עמוד ראשי
METAR-TAF:

METAR-TAF

שדות תעופה :

אל פאסו, טקסס, ארצות הברית

קו רוחב: 31-48-40N, קו אורך: 106-22-33W, גובה: 1206מטר

תצפית מזג אוויר נוכחית

הדו"ח נערך לפני 1 שעות ו 12דקות, בשעה 11:51 UTC
רוח רגועה
טמפרטורת 23 צלסיוס
לחות 38%
לחץ 1024 hPa
ראות: 16.1קילומטר
עננים פזורים בגובה 11000רגל
עננים בינוניים בגובה 25000רגל

METAR: KELP 251151Z 00000KT 10SM SCT110 BKN250 23/08 A3024 RMK AO2 SLP159 T02330083 10300 20233 53004

זמן: 08:03 (13:03 UTC)

תחזית

הדו"ח נערך לפני 1 שעות ו 27דקות, בשעה 11:36 UTC
תחזית בתוקף מ 25 ב 12 UTC עד 26 ב 12 UTC
רוח 4קשר עם כיוונים משתנים
ראות: 10קילומטר
מעט עננים בגובה 11000רגל
מ 25 ב 1800UTC
רוח 6קשר מכיוון דרום/דרום-מזרח
ראות: 10קילומטר
מעט עננים בגובה 12000רגל

TAF: KELP 251136Z 2512/2612 VRB04KT P6SM FEW110 FM251800 15006KT P6SM FEW120

תצפיות ותחזיות מזג אוויר לגבי יותר מ- 4,000 שדות תעופה ברחבי העולם. דוחות METAR ו- TAF.

התחנות הזמינות מסומנות בנקודות צהובות ואדומות על גבי המפה.

העבר את העכבר לנקודה הצבעונית על מנת לראות את שם התחנה.

לאחר מכן, לחץ כדי לראות את תוכן ואת תחזיות מזג האוויר.

כדי לשנות את המפה: לחץ על הכפתורים הירוקים עם הפלוס השחור כדי להתקרב; על הכפתור הירוק עם המקף כדי להתרחק; או בחיצים הירוקים למפות סמוכות.


METAR-TAF: